CheckWX is a tool to help pilots better visualize weather data.  It is not intended as a substitute for an official pre-flight weather briefing.

01:04:39 UTC

LTAR TAF
Sivas Airport
Sivas, Turkey
TAF LTAR 192240Z 2000/2009 34012KT 9999 SCT010 BKN025 BECMG 2000/2003 4000 -SN TEMPO 2003/2007 2000 SN

Apr-20@
00:00 UTC

Apr-20 @ 00:00 UTC

Apr-20@
09:00 UTC

Apr-20 @ 09:00 UTC

TAF LTAR 192240Z 2000/2009 34012KT 9999 SCT010 BKN025
Wind
  • 340° at 12 KTS
Cloud Levels
  • Scattered at 1,000' AGL
  • Broken at 2,500' AGL

Apr-20@
00:00 UTC

Apr-20 @ 00:00 UTC

Apr-20@
09:00 UTC

Apr-20 @ 09:00 UTC

BECMG 2000/2003 4000 -SN

Becoming

Becoming Conditions expected by Sat, Apr 20, 2019 @ 03:00 UTC

Wind
  • 340° at 12 KTS
Conditions
Light Snow
Cloud Levels
  • Scattered at 1,000' AGL
  • Broken at 2,500' AGL

Apr-20@
03:00 UTC

Apr-20 @ 03:00 UTC

Apr-20@
07:00 UTC

Apr-20 @ 07:00 UTC

TEMPO 2003/2007 2000 SN

Temporary

Temporary Changes expected for less than half the time period

Conditions
Snow